Latest Coastal Weather Observations for Warruwi

IDD60701

Issued at 3:41 pm CST Friday 29 April 2016 (issued every 10 minutes, with the page automatically refreshed every 10 minutes)

About coastal observations | Map of coastal stations | Coastal observations for NT | Marine services | Other Formats
Station Details ID: 014401 Name: WARRUWI AIRPORT Lat: -11.65 Lon: 133.38 Height: 19.2 m
Data from the previous 72 hours. | See also: Recent months at Warruwi
Date/Time
CST
Temp

°C
Wind Pressure Rain
since 9am
mm
Weather Cloud Vis
km
Sea
Height
m
Swell
Dir
 
Speed
knots
Gust
knots
hPa Trend Height
m
Period
s
Dir
29/03:30pm 32.5 NE 5 9 1009.1 - 0.0 - - - - - - -
29/03:00pm 32.9 ENE 6 8 1009.2 - 0.0 - - - - - - -
29/02:30pm 32.7 ENE 6 8 1009.6 - 0.0 - - - - - - -
29/02:00pm 33.5 E 5 7 1010.0 - 0.0 - - - - - - -
29/01:30pm 32.6 E 5 9 1010.3 - 0.0 - - - - - - -
29/01:00pm 32.2 E 6 9 1010.8 - 0.0 - - - - - - -
29/12:30pm 31.6 E 7 10 1011.3 - 0.0 - - - - - - -
29/12:00pm 31.6 E 7 9 1011.8 - 0.0 - - - - - - -
29/11:30am 31.4 ENE 5 8 1012.4 - 0.0 - - - - - - -
29/11:00am 30.9 ESE 8 11 1012.9 - 0.0 - - - - - - -
29/10:30am 30.9 ESE 8 10 1013.1 - 0.0 - - - - - - -
29/10:00am 30.6 ESE 7 11 1013.1 - 0.0 - - - - - - -
29/09:30am 29.9 ESE 7 10 1013.1 - 0.0 - - - - - - -
29/09:00am 29.6 ESE 7 11 1013.0 - 0.0 - - - - - - -
29/08:30am 28.6 SE 6 8 1013.0 - 0.0 - - - - - - -
29/08:00am 28.1 SE 6 8 1012.7 - 0.0 - - - - - - -
29/07:30am 27.5 SE 4 6 1012.4 - 0.0 - - - - - - -
29/07:00am 26.6 SE 4 6 1011.9 - 0.0 - - - - - - -
29/06:30am 26.7 SE 5 7 1011.6 - 0.0 - - - - - - -
29/06:00am 27.1 SE 6 10 1011.4 - 0.0 - - - - - - -
29/05:30am 27.2 ESE 9 13 1011.2 - 0.0 - - - - - - -
29/05:00am 28.4 ESE 6 8 1011.0 - 0.0 - - - - - - -
29/04:30am 27.5 E 3 5 1010.7 - 0.0 - - - - - - -
29/04:00am 26.9 NE 1 2 1010.6 - 0.0 - - - - - - -
29/03:30am 26.9 CALM 0 0 1010.8 - 0.0 - - - - - - -
29/03:00am 27.0 ENE 1 2 1010.9 - 0.0 - - - - - - -
29/02:30am 27.1 CALM 0 2 1011.2 - 0.0 - - - - - - -
29/02:00am 27.3 CALM 0 0 1011.3 - 0.0 - - - - - - -
29/01:30am 27.7 CALM 0 0 1011.4 - 0.0 - - - - - - -
29/01:00am 27.9 NE 1 2 1011.5 - 0.0 - - - - - - -
29/12:30am 28.0 CALM 0 0 1012.0 - 0.0 - - - - - - -
29/12:00am 28.4 CALM 0 0 1012.1 - 0.0 - - - - - - -
 
Date/Time
CST
Temp

°C
Wind Pressure Rain
since 9am
mm
Weather Cloud Vis
km
Sea
Height
m
Swell
Dir
 
Speed
knots
Gust
knots
hPa Trend Height
m
Period
s
Dir
28/11:30pm 28.7 CALM 0 1 1012.1 - 0.0 - - - - - - -
28/11:00pm 28.6 NNE 1 2 1012.0 - 0.0 - - - - - - -
28/10:30pm 28.8 CALM 0 1 1012.1 - 0.0 - - - - - - -
28/10:00pm 28.9 CALM 0 2 1012.1 - 0.0 - - - - - - -
28/09:30pm 28.9 CALM 0 0 1012.1 - 0.0 - - - - - - -
28/09:00pm 28.7 ENE 1 2 1011.6 - 0.0 - - - - - - -
28/08:30pm 28.5 CALM 0 0 1011.2 - 0.0 - - - - - - -
28/08:00pm 28.8 CALM 0 1 1010.6 - 0.0 - - - - - - -
28/07:30pm 28.9 NE 2 3 1010.3 - 0.0 - - - - - - -
28/07:00pm 29.0 ENE 3 5 1010.0 - 0.0 - - - - - - -
28/06:30pm 29.3 NE 3 6 1009.8 - 0.0 - - - - - - -
28/06:00pm 30.1 NE 4 8 1009.7 - 0.0 - - - - - - -
28/05:30pm 30.9 NE 3 5 1009.6 - 0.0 - - - - - - -
28/05:00pm 31.2 ENE 6 13 1009.3 - 0.0 - - - - - - -
28/04:30pm 30.8 ENE 7 11 1008.9 - 0.0 - - - - - - -
28/04:00pm 31.3 E 7 11 1008.9 - 0.0 - - - - - - -
28/03:30pm 31.1 E 7 11 1008.9 - 0.0 - - - - - - -
28/03:00pm 31.1 E 8 11 1009.1 - 0.0 - - - - - - -
28/02:30pm 31.3 E 8 13 1009.3 - 0.0 - - - - - - -
28/02:00pm 31.1 E 8 12 1009.6 - 0.0 - - - - - - -
28/01:30pm 30.9 E 9 13 1010.0 - 0.0 - - - - - - -
28/01:00pm 31.3 E 9 13 1010.3 - 0.0 - - - - - - -
28/12:30pm 31.1 E 8 11 1010.7 - 0.0 - - - - - - -
28/12:00pm 31.6 E 6 11 1011.1 - 0.0 - - - - - - -
28/11:30am 31.1 E 9 12 1011.4 - 0.0 - - - - - - -
28/11:00am 30.7 ESE 10 13 1011.8 - 0.0 - - - - - - -
28/10:30am 30.6 ESE 10 13 1011.8 - 0.0 - - - - - - -
28/10:00am 30.6 E 10 13 1011.9 - 0.0 - - - - - - -
28/09:30am 30.3 ESE 9 13 1011.6 - 0.0 - - - - - - -
28/09:00am 29.7 ESE 8 11 1011.4 - 1.4 - - - - - - -
28/08:30am 28.7 ESE 6 9 1011.1 - 1.4 - - - - - - -
28/08:00am 28.1 SE 7 9 1010.8 - 1.4 - - - - - - -
28/07:30am 27.5 SE 6 9 1010.5 - 1.4 - - - - - - -
28/07:00am 27.1 SE 6 10 1010.1 - 1.4 - - - - - - -
28/06:30am 27.1 ESE 7 11 1009.7 - 1.4 - - - - - - -
28/06:00am 27.2 ESE 7 11 1009.4 - 1.4 - - - - - - -
28/05:30am 27.4 ESE 9 14 1009.4 - 1.4 - - - - - - -
28/05:00am 27.4 ESE 7 11 1009.5 - 1.4 - - - - - - -
28/04:30am 27.7 ESE 7 10 1009.5 - 1.4 - - - - - - -
28/04:00am 27.8 ESE 9 14 1009.3 - 1.4 - - - - - - -
28/03:30am 28.0 ESE 10 15 1009.1 - 1.4 - - - - - - -
28/03:00am 27.9 ESE 11 16 1009.2 - 1.4 - - - - - - -
28/02:30am 27.9 ESE 10 15 1009.8 - 1.4 - - - - - - -
28/02:00am 27.4 ESE 10 15 1009.9 - 1.4 - - - - - - -
28/01:30am 25.9 SSE 12 19 1010.3 - 0.8 - - - - - - -
28/01:00am 29.1 E 10 14 1009.8 - 0.6 - - - - - - -
28/12:30am 28.6 E 10 16 1009.9 - 0.6 - - - - - - -
28/12:00am 29.0 ENE 9 16 1010.1 - 0.0 - - - - - - -
 
Date/Time
CST
Temp

°C
Wind Pressure Rain
since 9am
mm
Weather Cloud Vis
km
Sea
Height
m
Swell
Dir
 
Speed
knots
Gust
knots
hPa Trend Height
m
Period
s
Dir
27/11:30pm 29.4 ENE 5 9 1010.2 - 0.0 - - - - - - -
27/11:00pm 29.4 ENE 5 10 1010.3 - 0.0 - - - - - - -
27/10:30pm 29.2 ENE 4 8 1010.3 - 0.0 - - - - - - -
27/10:00pm 29.1 ENE 3 6 1010.2 - 0.0 - - - - - - -
27/09:30pm 28.9 ENE 3 5 1010.0 - 0.0 - - - - - - -
27/09:00pm 28.8 ENE 3 4 1009.8 - 0.0 - - - - - - -
27/08:30pm 28.9 ENE 3 5 1009.5 - 0.0 - - - - - - -
27/08:00pm 29.0 ENE 3 5 1009.2 - 0.0 - - - - - - -
27/07:30pm 29.0 ENE 3 5 1009.1 - 0.0 - - - - - - -
27/07:00pm 29.2 NE 4 7 1008.9 - 0.0 - - - - - - -
27/06:30pm 29.5 NE 4 8 1008.7 - 0.0 - - - - - - -
27/06:00pm 29.9 NE 5 11 1008.6 - 0.0 - - - - - - -
27/05:30pm 30.8 NE 5 7 1008.5 - 0.0 - - - - - - -
27/05:00pm 31.3 NE 6 9 1008.3 - 0.0 - - - - - - -
27/04:30pm 31.8 ENE 6 11 1008.1 - 0.0 - - - - - - -
27/04:00pm 31.6 ENE 7 11 1008.2 - 0.0 - - - - - - -
27/03:30pm 31.8 ENE 8 12 1008.2 - 0.0 - - - - - - -
27/03:00pm 32.0 ENE 7 13 1008.3 - 0.0 - - - - - - -
27/02:30pm 31.4 ENE 9 14 1008.7 - 0.0 - - - - - - -
27/02:00pm 31.4 ENE 9 14 1009.1 - 0.0 - - - - - - -
27/01:30pm 31.3 ENE 8 14 1009.7 - 0.0 - - - - - - -
27/01:00pm 31.7 E 10 15 1010.2 - 0.0 - - - - - - -
27/12:30pm 31.8 E 9 14 1010.4 - 0.0 - - - - - - -
27/12:00pm 31.5 ESE 10 13 1010.8 - 0.0 - - - - - - -
27/11:30am 31.1 E 10 14 1011.2 - 0.0 - - - - - - -
27/11:00am 30.6 E 10 15 1011.5 - 0.0 - - - - - - -
27/10:30am 30.5 ESE 11 14 1011.8 - 0.0 - - - - - - -
27/10:00am 30.5 ESE 10 14 1011.7 - 0.0 - - - - - - -
27/09:30am 29.8 ESE 10 14 1011.7 - 0.0 - - - - - - -
27/09:00am 29.5 ESE 10 14 1011.7 - 0.0 - - - - - - -
27/08:30am 28.9 ESE 10 15 1011.4 - 0.0 - - - - - - -
27/08:00am 28.4 ESE 11 16 1011.4 - 0.0 - - - - - - -
27/07:30am 27.9 ESE 11 16 1011.3 - 0.0 - - - - - - -
27/07:00am 27.3 ESE 10 14 1011.1 - 0.0 - - - - - - -
27/06:30am 27.3 ESE 11 16 1011.0 - 0.0 - - - - - - -
27/06:00am 27.3 ESE 10 15 1010.9 - 0.0 - - - - - - -
27/05:30am 27.3 ESE 9 14 1010.7 - 0.0 - - - - - - -
27/05:00am 27.3 ESE 11 16 1010.5 - 0.0 - - - - - - -
27/04:30am 27.4 ESE 11 15 1010.4 - 0.0 - - - - - - -
27/04:00am 27.5 ESE 11 16 1010.4 - 0.0 - - - - - - -
27/03:30am 27.8 ESE 11 16 1010.6 - 0.0 - - - - - - -
27/03:00am 27.9 ESE 10 16 1010.6 - 0.0 - - - - - - -
27/02:30am 28.1 ESE 10 15 1010.5 - 0.0 - - - - - - -
27/02:00am 28.4 ESE 10 15 1010.6 - 0.0 - - - - - - -
27/01:30am 29.0 ESE 12 18 1010.7 - 0.0 - - - - - - -
27/01:00am 28.8 ESE 8 11 1010.9 - 0.0 - - - - - - -
27/12:30am 29.4 ESE 8 12 1011.2 - 0.0 - - - - - - -
27/12:00am 29.6 E 8 13 1011.3 - 0.0 - - - - - - -
 
Date/Time
CST
Temp

°C
Wind Pressure Rain
since 9am
mm
Weather Cloud Vis
km
Sea
Height
m
Swell
Dir
 
Speed
knots
Gust
knots
hPa Trend Height
m
Period
s
Dir
26/11:30pm 29.6 E 8 12 1011.2 - 0.0 - - - - - - -
26/11:00pm 29.6 E 8 11 1011.4 - 0.0 - - - - - - -
26/10:30pm 29.6 E 7 11 1011.3 - 0.0 - - - - - - -
26/10:00pm 29.6 E 7 12 1011.2 - 0.0 - - - - - - -
26/09:30pm 29.6 E 6 9 1011.1 - 0.0 - - - - - - -
26/09:00pm 29.4 ENE 5 8 1010.9 - 0.0 - - - - - - -
26/08:30pm 29.4 ENE 6 10 1010.6 - 0.0 - - - - - - -
26/08:00pm 29.5 E 7 12 1010.3 - 0.0 - - - - - - -
26/07:30pm 29.5 ENE 5 11 1009.9 - 0.0 - - - - - - -
26/07:00pm 29.5 ENE 5 10 1009.8 - 0.0 - - - - - - -
26/06:30pm 29.6 ENE 7 12 1009.3 - 0.0 - - - - - - -
26/06:00pm 30.0 ENE 7 12 1009.1 - 0.0 - - - - - - -
26/05:30pm 30.6 ENE 7 11 1008.9 - 0.0 - - - - - - -
26/05:00pm 31.3 E 8 13 1008.7 - 0.0 - - - - - - -
26/04:30pm 31.2 E 10 17 1008.7 - 0.0 - - - - - - -
26/04:00pm 31.7 E 10 14 1008.7 - 0.0 - - - - - - -

Other Formats:

Comma delimited format used in spreadsheet applications
http://www.bom.gov.au/fwo/IDD60701/IDD60701.94139.axf

JavaScript Object Notation format (JSON) in row-major order
http://www.bom.gov.au/fwo/IDD60701/IDD60701.94139.json